Main page
METAR-TAF:

METAR-TAF

Airports :

Treviso, Italy

Istrana Air Base

latitude: 45-41N, longitude: 012-06E, elevation: 45 m

Current weather observation

The report was made 1 hour and 19 minutes ago, at 20:55 UTC
Wind 5 kt from the North
Temperature 1°C
Humidity 75%
Pressure 1025 hPa
Visibility 10 km or more
Scattered clouds at a height of 8000 ft

METAR: LIPS 182055Z 01005KT 9999 SCT080 01/M03 Q1025 RMK SCT VIS MIN 9999 WIND THR26 36003KT WIND THR08 36005KT BLU

Time: 23:14 (22:14 UTC)

Forecast

The report was made 2 hours and 14 minutes ago, at 20:00 UTC
Forecast valid from 18 at 21 UTC to 19 at 06 UTC
Wind 3 kt from the North/Northeast
Visibility 10 km or more
Few clouds at a height of 3000 ft

TAF: LIPS 182000Z 1821/1906 03003KT 9999 FEW030

Weather observations and forecasts of more than 4000 airports (METAR and TAF reports).

The available stations are represented by yellow and red dots on the map.

Hover mouse over dot to see the name of the station.

Then click to see weather observations and forecasts.

To change the map : click on the green buttons with a black cross to zoom in, on the green button with a dash to zoom out, or on the green arrows for adjacent maps.


METAR-TAF: